sensor_id;sensor_type;location;lat;lon;timestamp;pressure;altitude;pressure_sealevel;temperature;humidity
32875;BME280;40468;42.128;24.750;2024-02-15T00:01:23;100064.41;;;8.79;48.77
32875;BME280;40468;42.128;24.750;2024-02-15T00:02:54;100060.84;;;8.81;48.65
32875;BME280;40468;42.128;24.750;2024-02-15T00:04:28;100068.63;;;8.81;48.82
32875;BME280;40468;42.128;24.750;2024-02-15T00:06:00;100059.97;;;8.82;48.89
32875;BME280;40468;42.128;24.750;2024-02-15T00:07:32;100065.16;;;8.82;48.74
32875;BME280;40468;42.128;24.750;2024-02-15T00:09:06;100060.84;;;8.81;48.85
32875;BME280;40468;42.128;24.750;2024-02-15T00:10:38;100059.16;;;8.80;48.54
32875;BME280;40468;42.128;24.750;2024-02-15T00:12:09;100061.75;;;8.80;48.94
32875;BME280;40468;42.128;24.750;2024-02-15T00:13:41;100051.47;;;8.77;48.73
32875;BME280;40468;42.128;24.750;2024-02-15T00:15:12;100058.34;;;8.78;48.48
32875;BME280;40468;42.128;24.750;2024-02-15T00:16:44;100061.88;;;8.77;48.73
32875;BME280;40468;42.128;24.750;2024-02-15T00:18:16;100064.41;;;8.79;48.85
32875;BME280;40468;42.128;24.750;2024-02-15T00:19:48;100067.88;;;8.79;48.75
32875;BME280;40468;42.128;24.750;2024-02-15T00:21:19;100065.19;;;8.81;48.72
32875;BME280;40468;42.128;24.750;2024-02-15T00:22:52;100066.09;;;8.80;48.56
32875;BME280;40468;42.128;24.750;2024-02-15T00:24:24;100062.59;;;8.81;48.57
32875;BME280;40468;42.128;24.750;2024-02-15T00:25:56;100067.03;;;8.79;48.69
32875;BME280;40468;42.128;24.750;2024-02-15T00:27:27;100063.53;;;8.78;48.58
32875;BME280;40468;42.128;24.750;2024-02-15T00:28:58;100068.75;;;8.78;48.78
32875;BME280;40468;42.128;24.750;2024-02-15T00:30:29;100064.41;;;8.79;48.58
32875;BME280;40468;42.128;24.750;2024-02-15T00:32:02;100059.25;;;8.77;48.85
32875;BME280;40468;42.128;24.750;2024-02-15T00:33:34;100060.19;;;8.76;48.76
32875;BME280;40468;42.128;24.750;2024-02-15T00:35:07;100065.38;;;8.76;48.98
32875;BME280;40468;42.128;24.750;2024-02-15T00:36:42;100061.94;;;8.76;48.99
32875;BME280;40468;42.128;24.750;2024-02-15T00:38:14;100065.41;;;8.75;48.93
32875;BME280;40468;42.128;24.750;2024-02-15T00:39:46;100054.19;;;8.74;48.62
32875;BME280;40468;42.128;24.750;2024-02-15T00:41:18;100061.97;;;8.74;48.93
32875;BME280;40468;42.128;24.750;2024-02-15T00:42:52;100060.19;;;8.76;48.68
32875;BME280;40468;42.128;24.750;2024-02-15T00:44:24;100052.38;;;8.76;48.68
32875;BME280;40468;42.128;24.750;2024-02-15T00:45:54;100056.72;;;8.76;49.08
32875;BME280;40468;42.128;24.750;2024-02-15T00:47:26;100061.03;;;8.77;48.79
32875;BME280;40468;42.128;24.750;2024-02-15T00:48:58;100055.84;;;8.75;48.65
32875;BME280;40468;42.128;24.750;2024-02-15T00:50:30;100055.03;;;8.75;48.92
32875;BME280;40468;42.128;24.750;2024-02-15T00:52:01;100052.50;;;8.73;48.70
32875;BME280;40468;42.128;24.750;2024-02-15T00:53:33;100051.47;;;8.77;48.64
32875;BME280;40468;42.128;24.750;2024-02-15T00:55:05;100050.63;;;8.77;48.85
32875;BME280;40468;42.128;24.750;2024-02-15T00:56:37;100063.63;;;8.77;48.71
32875;BME280;40468;42.128;24.750;2024-02-15T00:58:08;100057.63;;;8.75;48.49
32875;BME280;40468;42.128;24.750;2024-02-15T00:59:40;100055.94;;;8.74;48.79
32875;BME280;40468;42.128;24.750;2024-02-15T01:01:11;100062.91;;;8.72;48.74
32875;BME280;40468;42.128;24.750;2024-02-15T01:02:42;100058.63;;;8.71;48.73
32875;BME280;40468;42.128;24.750;2024-02-15T01:04:13;100065.56;;;8.70;48.81
32875;BME280;40468;42.128;24.750;2024-02-15T01:05:45;100058.66;;;8.69;48.61
32875;BME280;40468;42.128;24.750;2024-02-15T01:07:16;100057.00;;;8.66;48.78
32875;BME280;40468;42.128;24.750;2024-02-15T01:08:48;100055.31;;;8.65;48.62
32875;BME280;40468;42.128;24.750;2024-02-15T01:10:20;100060.47;;;8.67;48.74
32875;BME280;40468;42.128;24.750;2024-02-15T01:11:53;100062.28;;;8.65;48.77
32875;BME280;40468;42.128;24.750;2024-02-15T01:13:25;100049.31;;;8.63;48.66
32875;BME280;40468;42.128;24.750;2024-02-15T01:14:57;100052.81;;;8.64;48.80
32875;BME280;40468;42.128;24.750;2024-02-15T01:16:28;100057.09;;;8.65;48.51
32875;BME280;40468;42.128;24.750;2024-02-15T01:18:01;100051.88;;;8.65;48.62
32875;BME280;40468;42.128;24.750;2024-02-15T01:19:31;100058.00;;;8.64;48.59
32875;BME280;40468;42.128;24.750;2024-02-15T01:21:04;100056.28;;;8.63;48.95
32875;BME280;40468;42.128;24.750;2024-02-15T01:22:34;100052.81;;;8.64;49.01
32875;BME280;40468;42.128;24.750;2024-02-15T01:24:06;100056.28;;;8.63;48.70
32875;BME280;40468;42.128;24.750;2024-02-15T01:25:39;100045.00;;;8.64;48.82
32875;BME280;40468;42.128;24.750;2024-02-15T01:27:10;100056.28;;;8.63;48.92
32875;BME280;40468;42.128;24.750;2024-02-15T01:28:42;100052.03;;;8.60;48.80
32875;BME280;40468;42.128;24.750;2024-02-15T01:30:13;100046.91;;;8.59;48.75
32875;BME280;40468;42.128;24.750;2024-02-15T01:31:46;100053.88;;;8.57;48.91
32875;BME280;40468;42.128;24.750;2024-02-15T01:33:16;100053.97;;;8.54;48.76
32875;BME280;40468;42.128;24.750;2024-02-15T01:34:48;100004.81;;;8.23;49.06
32875;BME280;40468;42.128;24.750;2024-02-15T01:36:21;100062.69;;;8.53;49.05
32875;BME280;40468;42.128;24.750;2024-02-15T01:37:53;100053.19;;;8.52;49.11
32875;BME280;40468;42.128;24.750;2024-02-15T01:39:24;100048.06;;;8.50;48.97
32875;BME280;40468;42.128;24.750;2024-02-15T01:40:57;100062.72;;;8.51;49.03
32875;BME280;40468;42.128;24.750;2024-02-15T01:42:28;100053.34;;;8.47;48.89
32875;BME280;40468;42.128;24.750;2024-02-15T01:44:00;100056.78;;;8.48;49.03
32875;BME280;40468;42.128;24.750;2024-02-15T01:45:32;100063.72;;;8.47;49.36
32875;BME280;40468;42.128;24.750;2024-02-15T01:47:03;100055.19;;;8.43;49.21
32875;BME280;40468;42.128;24.750;2024-02-15T01:48:36;100060.31;;;8.45;49.14
32875;BME280;40468;42.128;24.750;2024-02-15T01:50:08;100066.47;;;8.42;49.43
32875;BME280;40468;42.128;24.750;2024-02-15T01:51:40;100066.91;;;8.27;49.41
32875;BME280;40468;42.128;24.750;2024-02-15T01:53:13;100072.00;;;8.30;49.63
32875;BME280;40468;42.128;24.750;2024-02-15T01:54:46;100070.16;;;8.34;49.40
32875;BME280;40468;42.128;24.750;2024-02-15T01:56:18;100069.28;;;8.35;49.39
32875;BME280;40468;42.128;24.750;2024-02-15T01:57:50;100064.97;;;8.34;49.48
32875;BME280;40468;42.128;24.750;2024-02-15T01:59:22;100023.44;;;8.07;49.32
32875;BME280;40468;42.128;24.750;2024-02-15T02:00:54;100053.06;;;8.28;49.23
32875;BME280;40468;42.128;24.750;2024-02-15T02:02:31;100069.38;;;8.32;49.20
32875;BME280;40468;42.128;24.750;2024-02-15T02:04:04;100069.47;;;8.29;49.41
32875;BME280;40468;42.128;24.750;2024-02-15T02:05:36;100068.66;;;8.27;49.25
32875;BME280;40468;42.128;24.750;2024-02-15T02:07:07;100067.75;;;8.28;49.42
32875;BME280;40468;42.128;24.750;2024-02-15T02:08:39;100073.88;;;8.25;49.13
32875;BME280;40468;42.128;24.750;2024-02-15T02:10:12;100073.94;;;8.24;49.32
32875;BME280;40468;42.128;24.750;2024-02-15T02:11:45;100072.25;;;8.23;49.33
32875;BME280;40468;42.128;24.750;2024-02-15T02:13:18;100071.44;;;8.20;49.40
32875;BME280;40468;42.128;24.750;2024-02-15T02:14:50;100060.25;;;8.18;49.32
32875;BME280;40468;42.128;24.750;2024-02-15T02:16:25;100068.88;;;8.19;49.32
32875;BME280;40468;42.128;24.750;2024-02-15T02:17:57;100069.88;;;8.16;49.20
32875;BME280;40468;42.128;24.750;2024-02-15T02:19:29;100068.16;;;8.15;49.42
32875;BME280;40468;42.128;24.750;2024-02-15T02:21:01;100061.28;;;8.14;49.27
32875;BME280;40468;42.128;24.750;2024-02-15T02:22:35;100065.66;;;8.12;49.37
32875;BME280;40468;42.128;24.750;2024-02-15T02:24:13;100072.59;;;8.12;49.30
32875;BME280;40468;42.128;24.750;2024-02-15T02:25:45;100079.56;;;8.10;49.16
32875;BME280;40468;42.128;24.750;2024-02-15T02:27:19;100077.03;;;8.08;49.40
32875;BME280;40468;42.128;24.750;2024-02-15T02:28:51;100073.59;;;8.08;49.45
32875;BME280;40468;42.128;24.750;2024-02-15T02:30:24;100077.97;;;8.06;49.42
32875;BME280;40468;42.128;24.750;2024-02-15T02:31:59;100077.97;;;8.06;49.24
32875;BME280;40468;42.128;24.750;2024-02-15T02:33:31;100086.66;;;8.05;49.42
32875;BME280;40468;42.128;24.750;2024-02-15T02:35:04;100081.47;;;8.05;49.28
32875;BME280;40468;42.128;24.750;2024-02-15T02:36:37;100081.56;;;8.02;49.42
32875;BME280;40468;42.128;24.750;2024-02-15T02:38:08;100087.59;;;8.02;49.26
32875;BME280;40468;42.128;24.750;2024-02-15T02:39:41;100090.13;;;8.04;49.45
32875;BME280;40468;42.128;24.750;2024-02-15T02:41:14;100095.41;;;8.01;49.26
32875;BME280;40468;42.128;24.750;2024-02-15T02:42:48;100087.72;;;7.97;49.40
32875;BME280;40468;42.128;24.750;2024-02-15T02:44:19;100093.00;;;7.94;49.46
32875;BME280;40468;42.128;24.750;2024-02-15T02:45:50;100094.75;;;7.94;49.60
32875;BME280;40468;42.128;24.750;2024-02-15T02:47:21;100088.72;;;7.93;49.21
32875;BME280;40468;42.128;24.750;2024-02-15T02:48:53;100092.16;;;7.92;49.42
32875;BME280;40468;42.128;24.750;2024-02-15T02:50:24;100100.84;;;7.91;49.24
32875;BME280;40468;42.128;24.750;2024-02-15T02:51:56;100103.44;;;7.91;49.33
32875;BME280;40468;42.128;24.750;2024-02-15T02:53:27;100095.75;;;7.88;49.54
32875;BME280;40468;42.128;24.750;2024-02-15T02:54:58;100103.50;;;7.90;49.33
32875;BME280;40468;42.128;24.750;2024-02-15T02:56:31;100103.50;;;7.90;49.35
32875;BME280;40468;42.128;24.750;2024-02-15T02:58:03;100092.41;;;7.85;49.52
32875;BME280;40468;42.128;24.750;2024-02-15T02:59:36;100067.06;;;7.65;49.61
32875;BME280;40468;42.128;24.750;2024-02-15T03:01:10;100101.00;;;7.87;49.60
32875;BME280;40468;42.128;24.750;2024-02-15T03:02:41;100103.59;;;7.87;49.46
32875;BME280;40468;42.128;24.750;2024-02-15T03:04:15;100100.13;;;7.86;49.69
32875;BME280;40468;42.128;24.750;2024-02-15T03:05:47;100096.22;;;7.73;49.74
32875;BME280;40468;42.128;24.750;2024-02-15T03:07:18;100097.06;;;7.73;49.95
32875;BME280;40468;42.128;24.750;2024-02-15T03:08:49;100090.88;;;7.78;49.71
32875;BME280;40468;42.128;24.750;2024-02-15T03:10:24;100091.75;;;7.78;49.75
32875;BME280;40468;42.128;24.750;2024-02-15T03:11:56;100090.84;;;7.79;49.51
32875;BME280;40468;42.128;24.750;2024-02-15T03:13:28;100097.72;;;7.80;49.53
32875;BME280;40468;42.128;24.750;2024-02-15T03:14:59;100102.91;;;7.80;49.71
32875;BME280;40468;42.128;24.750;2024-02-15T03:16:32;100096.88;;;7.80;49.61
32875;BME280;40468;42.128;24.750;2024-02-15T03:18:04;100091.75;;;7.78;49.75
32875;BME280;40468;42.128;24.750;2024-02-15T03:19:37;100096.94;;;7.78;49.62
32875;BME280;40468;42.128;24.750;2024-02-15T03:21:09;100097.78;;;7.79;49.87
32875;BME280;40468;42.128;24.750;2024-02-15T03:22:42;100101.16;;;7.81;49.77
32875;BME280;40468;42.128;24.750;2024-02-15T03:24:14;100098.63;;;7.79;49.88
32875;BME280;40468;42.128;24.750;2024-02-15T03:25:44;100093.47;;;7.78;49.65
32875;BME280;40468;42.128;24.750;2024-02-15T03:27:18;100096.03;;;7.79;49.69
32875;BME280;40468;42.128;24.750;2024-02-15T03:28:48;100101.25;;;7.78;49.64
32875;BME280;40468;42.128;24.750;2024-02-15T03:30:21;100099.53;;;7.78;49.61
32875;BME280;40468;42.128;24.750;2024-02-15T03:31:52;100093.56;;;7.74;49.61
32875;BME280;40468;42.128;24.750;2024-02-15T03:33:25;100100.41;;;7.77;49.70
32875;BME280;40468;42.128;24.750;2024-02-15T03:34:59;100095.28;;;7.75;49.69
32875;BME280;40468;42.128;24.750;2024-02-15T03:36:31;100095.31;;;7.74;49.50
32875;BME280;40468;42.128;24.750;2024-02-15T03:38:02;100094.44;;;7.75;49.83
32875;BME280;40468;42.128;24.750;2024-02-15T03:39:34;100098.81;;;7.73;49.62
32875;BME280;40468;42.128;24.750;2024-02-15T03:41:06;100094.47;;;7.73;49.76
32875;BME280;40468;42.128;24.750;2024-02-15T03:42:38;100100.56;;;7.72;49.84
32875;BME280;40468;42.128;24.750;2024-02-15T03:44:09;100103.16;;;7.72;49.70
32875;BME280;40468;42.128;24.750;2024-02-15T03:45:41;100104.00;;;7.73;49.76
32875;BME280;40468;42.128;24.750;2024-02-15T03:47:15;100104.03;;;7.71;49.76
32875;BME280;40468;42.128;24.750;2024-02-15T03:48:45;100098.81;;;7.73;49.79
32875;BME280;40468;42.128;24.750;2024-02-15T03:50:17;100097.13;;;7.72;49.66
32875;BME280;40468;42.128;24.750;2024-02-15T03:51:49;100103.16;;;7.72;49.71
32875;BME280;40468;42.128;24.750;2024-02-15T03:53:21;100107.44;;;7.73;49.73
32875;BME280;40468;42.128;24.750;2024-02-15T03:54:52;100107.44;;;7.73;49.64
32875;BME280;40468;42.128;24.750;2024-02-15T03:56:24;100103.91;;;7.76;49.75
32875;BME280;40468;42.128;24.750;2024-02-15T03:57:57;100104.72;;;7.78;49.69
32875;BME280;40468;42.128;24.750;2024-02-15T03:59:28;100107.34;;;7.77;49.64
32875;BME280;40468;42.128;24.750;2024-02-15T04:01:03;100108.19;;;7.77;49.56
32875;BME280;40468;42.128;24.750;2024-02-15T04:02:37;100113.34;;;7.79;49.28
32875;BME280;40468;42.128;24.750;2024-02-15T04:04:10;100114.19;;;7.79;49.46
32875;BME280;40468;42.128;24.750;2024-02-15T04:05:42;100107.31;;;7.78;49.61
32875;BME280;40468;42.128;24.750;2024-02-15T04:07:13;100117.69;;;7.78;49.44
32875;BME280;40468;42.128;24.750;2024-02-15T04:08:44;100116.78;;;7.79;49.50
32875;BME280;40468;42.128;24.750;2024-02-15T04:10:16;100111.59;;;7.79;49.68
32875;BME280;40468;42.128;24.750;2024-02-15T04:11:48;100118.53;;;7.79;49.66
32875;BME280;40468;42.128;24.750;2024-02-15T04:13:24;100119.38;;;7.79;49.60
32875;BME280;40468;42.128;24.750;2024-02-15T04:14:55;100109.91;;;7.78;49.52
32875;BME280;40468;42.128;24.750;2024-02-15T04:16:31;100108.94;;;7.81;49.60
32875;BME280;40468;42.128;24.750;2024-02-15T04:18:03;100120.22;;;7.80;49.51
32875;BME280;40468;42.128;24.750;2024-02-15T04:19:35;100114.13;;;7.81;49.45
32875;BME280;40468;42.128;24.750;2024-02-15T04:21:07;100111.59;;;7.79;49.35
32875;BME280;40468;42.128;24.750;2024-02-15T04:22:39;100121.97;;;7.79;49.51
32875;BME280;40468;42.128;24.750;2024-02-15T04:24:13;100110.69;;;7.80;49.45
32875;BME280;40468;42.128;24.750;2024-02-15T04:25:44;100115.03;;;7.80;49.48
32875;BME280;40468;42.128;24.750;2024-02-15T04:27:21;100117.59;;;7.81;49.33
32875;BME280;40468;42.128;24.750;2024-02-15T04:28:53;100121.88;;;7.82;49.36
32875;BME280;40468;42.128;24.750;2024-02-15T04:30:25;100119.38;;;7.79;49.20
32875;BME280;40468;42.128;24.750;2024-02-15T04:31:56;100114.19;;;7.79;49.25
32875;BME280;40468;42.128;24.750;2024-02-15T04:33:28;100121.06;;;7.80;49.48
32875;BME280;40468;42.128;24.750;2024-02-15T04:34:59;100120.19;;;7.81;49.44
32875;BME280;40468;42.128;24.750;2024-02-15T04:36:32;100119.31;;;7.81;49.39
32875;BME280;40468;42.128;24.750;2024-02-15T04:38:04;100055.56;;;7.44;49.38
32875;BME280;40468;42.128;24.750;2024-02-15T04:39:38;100114.28;;;7.76;49.40
32875;BME280;40468;42.128;24.750;2024-02-15T04:41:09;100124.47;;;7.82;49.37
32875;BME280;40468;42.128;24.750;2024-02-15T04:42:41;100119.31;;;7.81;49.22
32875;BME280;40468;42.128;24.750;2024-02-15T04:44:16;100123.63;;;7.82;49.41
32875;BME280;40468;42.128;24.750;2024-02-15T04:45:50;100123.63;;;7.82;49.26
32875;BME280;40468;42.128;24.750;2024-02-15T04:47:23;100126.22;;;7.82;49.53
32875;BME280;40468;42.128;24.750;2024-02-15T04:48:53;100126.25;;;7.80;49.40
32875;BME280;40468;42.128;24.750;2024-02-15T04:50:26;100127.16;;;7.79;49.37
32875;BME280;40468;42.128;24.750;2024-02-15T04:51:57;100128.84;;;7.80;49.42
32875;BME280;40468;42.128;24.750;2024-02-15T04:53:28;100130.56;;;7.81;49.22
32875;BME280;40468;42.128;24.750;2024-02-15T04:55:01;100130.59;;;7.80;49.31
32875;BME280;40468;42.128;24.750;2024-02-15T04:56:35;100127.16;;;7.79;49.36
32875;BME280;40468;42.128;24.750;2024-02-15T04:58:06;100131.50;;;7.79;49.23
32875;BME280;40468;42.128;24.750;2024-02-15T04:59:42;100135.78;;;7.80;49.17
32875;BME280;40468;42.128;24.750;2024-02-15T05:01:17;100125.47;;;7.78;49.22
32875;BME280;40468;42.128;24.750;2024-02-15T05:02:49;100129.75;;;7.78;49.19
32875;BME280;40468;42.128;24.750;2024-02-15T05:04:20;100128.09;;;7.77;49.31
32875;BME280;40468;42.128;24.750;2024-02-15T05:05:52;100125.50;;;7.77;49.60
32875;BME280;40468;42.128;24.750;2024-02-15T05:07:23;100134.88;;;7.81;49.32
32875;BME280;40468;42.128;24.750;2024-02-15T05:08:55;100134.03;;;7.80;49.60
32875;BME280;40468;42.128;24.750;2024-02-15T05:10:27;100128.00;;;7.80;49.66
32875;BME280;40468;42.128;24.750;2024-02-15T05:11:59;100132.19;;;7.84;49.70
32875;BME280;40468;42.128;24.750;2024-02-15T05:13:30;100136.50;;;7.85;49.72
32875;BME280;40468;42.128;24.750;2024-02-15T05:15:04;100124.41;;;7.84;49.46
32875;BME280;40468;42.128;24.750;2024-02-15T05:16:40;100134.78;;;7.84;49.45
32875;BME280;40468;42.128;24.750;2024-02-15T05:18:13;100129.69;;;7.81;49.41
32875;BME280;40468;42.128;24.750;2024-02-15T05:19:45;100132.25;;;7.82;49.51
32875;BME280;40468;42.128;24.750;2024-02-15T05:21:16;100140.88;;;7.83;49.42
32875;BME280;40468;42.128;24.750;2024-02-15T05:22:48;100136.66;;;7.79;49.52
32875;BME280;40468;42.128;24.750;2024-02-15T05:24:19;100129.75;;;7.79;49.53
32875;BME280;40468;42.128;24.750;2024-02-15T05:25:51;100137.44;;;7.82;49.58
32875;BME280;40468;42.128;24.750;2024-02-15T05:27:24;100143.53;;;7.81;49.60
32875;BME280;40468;42.128;24.750;2024-02-15T05:28:56;100146.03;;;7.84;49.42
32875;BME280;40468;42.128;24.750;2024-02-15T05:30:30;100142.44;;;7.88;49.61
32875;BME280;40468;42.128;24.750;2024-02-15T05:32:02;100144.94;;;7.91;49.51
32875;BME280;40468;42.128;24.750;2024-02-15T05:33:33;100147.44;;;7.94;49.45
32875;BME280;40468;42.128;24.750;2024-02-15T05:35:05;100143.94;;;7.95;49.29
32875;BME280;40468;42.128;24.750;2024-02-15T05:36:39;100146.59;;;7.94;49.18
32875;BME280;40468;42.128;24.750;2024-02-15T05:38:10;100143.09;;;7.95;49.22
32875;BME280;40468;42.128;24.750;2024-02-15T05:39:45;100152.63;;;7.94;49.28
32875;BME280;40468;42.128;24.750;2024-02-15T05:41:16;100156.97;;;7.94;49.19
32875;BME280;40468;42.128;24.750;2024-02-15T05:42:55;100162.19;;;7.92;49.34
32875;BME280;40468;42.128;24.750;2024-02-15T05:44:26;100162.19;;;7.92;49.13
32875;BME280;40468;42.128;24.750;2024-02-15T05:45:59;100160.56;;;7.90;49.23
32875;BME280;40468;42.128;24.750;2024-02-15T05:47:30;100139.13;;;7.83;49.34
32875;BME280;40468;42.128;24.750;2024-02-15T05:49:02;100170.78;;;7.94;49.41
32875;BME280;40468;42.128;24.750;2024-02-15T05:50:35;100164.69;;;7.95;49.33
32875;BME280;40468;42.128;24.750;2024-02-15T05:52:06;100164.59;;;7.98;49.33
32875;BME280;40468;42.128;24.750;2024-02-15T05:53:39;100164.59;;;7.98;49.48
32875;BME280;40468;42.128;24.750;2024-02-15T05:55:11;100160.28;;;7.99;49.51
32875;BME280;40468;42.128;24.750;2024-02-15T05:56:42;100162.81;;;8.01;49.44
32875;BME280;40468;42.128;24.750;2024-02-15T05:58:14;100150.97;;;7.92;49.59
32875;BME280;40468;42.128;24.750;2024-02-15T05:59:45;100169.59;;;8.06;49.42
32875;BME280;40468;42.128;24.750;2024-02-15T06:01:18;100174.78;;;8.06;49.28
32875;BME280;40468;42.128;24.750;2024-02-15T06:02:49;100170.53;;;8.04;49.38
32875;BME280;40468;42.128;24.750;2024-02-15T06:04:22;100173.13;;;8.04;49.49
32875;BME280;40468;42.128;24.750;2024-02-15T06:05:53;100173.19;;;8.02;49.19
32875;BME280;40468;42.128;24.750;2024-02-15T06:07:28;100179.22;;;8.03;49.38
32875;BME280;40468;42.128;24.750;2024-02-15T06:08:59;100186.16;;;8.02;49.30
32875;BME280;40468;42.128;24.750;2024-02-15T06:10:32;100187.00;;;8.03;49.32
32875;BME280;40468;42.128;24.750;2024-02-15T06:12:03;100187.84;;;8.03;49.35
32875;BME280;40468;42.128;24.750;2024-02-15T06:13:35;100186.94;;;8.04;49.41
32875;BME280;40468;42.128;24.750;2024-02-15T06:15:07;100186.91;;;8.06;49.39
32875;BME280;40468;42.128;24.750;2024-02-15T06:16:46;100191.19;;;8.07;49.27
32875;BME280;40468;42.128;24.750;2024-02-15T06:18:19;100198.97;;;8.07;49.33
32875;BME280;40468;42.128;24.750;2024-02-15T06:19:51;100198.09;;;8.08;49.48
32875;BME280;40468;42.128;24.750;2024-02-15T06:21:23;100190.22;;;8.11;49.55
32875;BME280;40468;42.128;24.750;2024-02-15T06:22:55;100191.91;;;8.12;49.45
32875;BME280;40468;42.128;24.750;2024-02-15T06:24:26;100188.38;;;8.14;49.44
32875;BME280;40468;42.128;24.750;2024-02-15T06:25:58;100187.53;;;8.14;49.27
32875;BME280;40468;42.128;24.750;2024-02-15T06:27:31;100190.22;;;8.11;49.21
32875;BME280;40468;42.128;24.750;2024-02-15T06:29:03;100177.47;;;8.03;49.32
32875;BME280;40468;42.128;24.750;2024-02-15T06:30:52;100189.34;;;8.10;49.42
32875;BME280;40468;42.128;24.750;2024-02-15T06:32:45;100200.59;;;8.11;49.13
32875;BME280;40468;42.128;24.750;2024-02-15T06:34:34;100197.13;;;8.10;49.29
32875;BME280;40468;42.128;24.750;2024-02-15T06:36:20;100204.88;;;8.12;49.26
32875;BME280;40468;42.128;24.750;2024-02-15T06:38:09;100199.69;;;8.12;49.08
32875;BME280;40468;42.128;24.750;2024-02-15T06:39:58;100201.38;;;8.13;49.20
32875;BME280;40468;42.128;24.750;2024-02-15T06:41:30;100202.19;;;8.15;49.10
32875;BME280;40468;42.128;24.750;2024-02-15T06:43:01;100152.13;;;7.82;49.15
32875;BME280;40468;42.128;24.750;2024-02-15T06:44:33;100213.38;;;8.17;49.06
32875;BME280;40468;42.128;24.750;2024-02-15T06:46:06;100216.75;;;8.20;49.30
32875;BME280;40468;42.128;24.750;2024-02-15T06:47:41;100217.56;;;8.23;49.17
32875;BME280;40468;42.128;24.750;2024-02-15T06:49:14;100208.09;;;8.20;49.01
32875;BME280;40468;42.128;24.750;2024-02-15T06:50:48;100220.94;;;8.25;48.94
32875;BME280;40468;42.128;24.750;2024-02-15T06:52:18;100214.09;;;8.22;49.05
32875;BME280;40468;42.128;24.750;2024-02-15T06:53:50;100216.59;;;8.25;48.87
32875;BME280;40468;42.128;24.750;2024-02-15T06:55:22;100174.09;;;8.00;49.10
32875;BME280;40468;42.128;24.750;2024-02-15T06:56:54;100217.41;;;8.27;48.86
32875;BME280;40468;42.128;24.750;2024-02-15T06:58:24;100222.50;;;8.30;48.82
32875;BME280;40468;42.128;24.750;2024-02-15T06:59:57;100222.50;;;8.30;49.08
32875;BME280;40468;42.128;24.750;2024-02-15T07:01:28;100225.94;;;8.31;48.82
32875;BME280;40468;42.128;24.750;2024-02-15T07:03:01;100224.22;;;8.31;48.96
32875;BME280;40468;42.128;24.750;2024-02-15T07:04:33;100212.19;;;8.29;48.75
32875;BME280;40468;42.128;24.750;2024-02-15T07:06:05;100216.47;;;8.30;48.75
32875;BME280;40468;42.128;24.750;2024-02-15T07:07:36;100222.50;;;8.30;48.76
32875;BME280;40468;42.128;24.750;2024-02-15T07:09:09;100222.47;;;8.32;48.69
32875;BME280;40468;42.128;24.750;2024-02-15T07:10:41;100228.50;;;8.32;48.77
32875;BME280;40468;42.128;24.750;2024-02-15T07:12:13;100224.13;;;8.34;48.72
32875;BME280;40468;42.128;24.750;2024-02-15T07:13:45;100219.72;;;8.36;48.78
32875;BME280;40468;42.128;24.750;2024-02-15T07:15:17;100143.38;;;7.86;48.56
32875;BME280;40468;42.128;24.750;2024-02-15T07:16:48;100223.06;;;8.43;48.67
32875;BME280;40468;42.128;24.750;2024-02-15T07:18:21;100234.97;;;8.49;48.35
32875;BME280;40468;42.128;24.750;2024-02-15T07:19:54;100231.25;;;8.57;48.35
32875;BME280;40468;42.128;24.750;2024-02-15T07:21:25;100231.94;;;8.64;48.54
32875;BME280;40468;42.128;24.750;2024-02-15T07:22:57;100224.53;;;8.78;48.07
32875;BME280;40468;42.128;24.750;2024-02-15T07:24:29;100227.66;;;8.89;47.81
32875;BME280;40468;42.128;24.750;2024-02-15T07:26:00;100228.38;;;8.95;47.78
32875;BME280;40468;42.128;24.750;2024-02-15T07:27:32;100224.78;;;8.99;47.54
32875;BME280;40468;42.128;24.750;2024-02-15T07:29:05;100227.28;;;9.02;47.50
32875;BME280;40468;42.128;24.750;2024-02-15T07:30:36;100225.34;;;9.08;47.53
32875;BME280;40468;42.128;24.750;2024-02-15T07:32:08;100208.31;;;9.00;47.15
32875;BME280;40468;42.128;24.750;2024-02-15T07:33:40;100219.03;;;9.16;47.32
32875;BME280;40468;42.128;24.750;2024-02-15T07:35:15;100227.53;;;9.21;47.18
32875;BME280;40468;42.128;24.750;2024-02-15T07:36:47;100225.38;;;9.33;46.78
32875;BME280;40468;42.128;24.750;2024-02-15T07:38:19;100174.38;;;9.04;46.94
32875;BME280;40468;42.128;24.750;2024-02-15T07:39:53;100224.44;;;9.36;46.70
32875;BME280;40468;42.128;24.750;2024-02-15T07:41:24;100226.16;;;9.62;46.60
32875;BME280;40468;42.128;24.750;2024-02-15T07:42:56;100216.56;;;9.88;45.85
32875;BME280;40468;42.128;24.750;2024-02-15T07:44:29;100225.44;;;10.07;45.24
32875;BME280;40468;42.128;24.750;2024-02-15T07:46:01;100225.59;;;10.02;45.28
32875;BME280;40468;42.128;24.750;2024-02-15T07:47:33;100225.69;;;9.99;45.26
32875;BME280;40468;42.128;24.750;2024-02-15T07:49:04;100226.63;;;9.98;44.97
32875;BME280;40468;42.128;24.750;2024-02-15T07:50:38;100229.91;;;10.03;45.05
32875;BME280;40468;42.128;24.750;2024-02-15T07:52:11;100211.97;;;10.19;44.62
32875;BME280;40468;42.128;24.750;2024-02-15T07:53:43;100225.41;;;10.78;44.19
32875;BME280;40468;42.128;24.750;2024-02-15T07:55:14;100235.25;;;11.35;43.04
32875;BME280;40468;42.128;24.750;2024-02-15T07:56:46;100227.38;;;11.78;41.86
32875;BME280;40468;42.128;24.750;2024-02-15T07:58:17;100234.66;;;12.11;41.24
32875;BME280;40468;42.128;24.750;2024-02-15T07:59:49;100214.34;;;12.36;40.90
32875;BME280;40468;42.128;24.750;2024-02-15T08:01:20;100218.31;;;12.64;40.34
32875;BME280;40468;42.128;24.750;2024-02-15T08:02:52;100223.50;;;12.83;40.01
32875;BME280;40468;42.128;24.750;2024-02-15T08:04:24;100228.44;;;12.89;39.87